createdAt,value
2023-03-23T15:58:13.845Z,2.47
2023-03-23T16:00:43.046Z,4.47
2023-03-23T16:03:18.106Z,6.85
2023-03-23T16:05:45.301Z,11.70
2023-03-23T16:08:12.483Z,7.30
2023-03-23T16:10:39.063Z,7.32
2023-03-23T16:13:06.213Z,7.70
2023-03-23T16:15:33.242Z,6.57
2023-03-23T16:18:00.007Z,6.53
2023-03-23T16:20:29.605Z,4.72
2023-03-23T16:22:56.547Z,8.68
2023-03-23T16:25:23.252Z,3.55
2023-03-23T16:27:52.221Z,6.07
2023-03-23T16:30:19.370Z,6.78
2023-03-23T16:32:47.075Z,6.28
2023-03-23T16:35:15.414Z,6.07
2023-03-23T16:37:50.617Z,5.00
2023-03-23T16:40:18.573Z,4.82
2023-03-23T16:42:45.289Z,3.85
2023-03-23T16:45:12.926Z,8.60
2023-03-23T16:47:40.383Z,7.85
2023-03-23T16:50:12.111Z,4.28
2023-03-23T16:52:46.232Z,5.78
2023-03-23T16:55:16.349Z,6.72
2023-03-23T16:57:43.550Z,5.68
2023-03-23T17:00:20.033Z,4.68
2023-03-23T17:02:52.045Z,2.50
2023-03-23T17:05:22.779Z,3.28
2023-03-23T17:07:49.374Z,6.22
2023-03-23T17:10:16.865Z,6.22
2023-03-23T17:12:44.222Z,4.93
2023-03-23T17:15:11.453Z,5.13
2023-03-23T17:17:38.186Z,5.93
2023-03-23T17:20:06.469Z,5.43
2023-03-23T17:22:33.136Z,6.45
2023-03-23T17:24:59.928Z,6.93
2023-03-23T17:27:27.366Z,5.90
2023-03-23T17:29:53.944Z,3.83
2023-03-23T17:32:21.838Z,6.43
2023-03-23T17:34:48.488Z,4.78
2023-03-23T17:37:15.653Z,6.78
2023-03-23T17:39:44.450Z,5.30
2023-03-23T17:42:11.853Z,3.65
2023-03-23T17:44:38.598Z,4.70
2023-03-23T17:47:08.261Z,7.00
2023-03-23T17:49:35.427Z,3.75
2023-03-23T17:52:07.924Z,5.70
2023-03-23T17:54:34.602Z,4.18
2023-03-23T17:57:03.902Z,8.10
2023-03-23T17:59:31.100Z,5.10
2023-03-23T18:01:58.070Z,7.35
2023-03-23T18:04:26.990Z,4.47
2023-03-23T18:06:57.719Z,5.10
2023-03-23T18:09:25.705Z,4.88
2023-03-23T18:11:53.066Z,4.07
2023-03-23T18:14:20.304Z,8.57
2023-03-23T18:17:41.807Z,10.68
2023-03-23T18:20:09.157Z,6.53
2023-03-23T18:22:36.276Z,10.60
2023-03-23T18:25:05.206Z,7.47
2023-03-23T18:27:32.479Z,8.73
2023-03-23T18:29:59.177Z,12.60
2023-03-23T18:32:27.998Z,12.77
2023-03-23T18:34:56.022Z,7.22
2023-03-23T18:37:22.872Z,8.32
2023-03-23T18:39:49.557Z,8.00
2023-03-23T18:42:16.298Z,8.43
2023-03-23T18:44:43.156Z,6.45
2023-03-23T18:47:09.804Z,7.63
2023-03-23T18:49:36.915Z,5.25
2023-03-23T18:52:04.446Z,8.52
2023-03-23T18:54:34.774Z,9.98
2023-03-23T18:57:03.084Z,13.95
2023-03-23T18:59:34.668Z,8.20
2023-03-23T19:02:07.701Z,46.72
2023-03-23T19:04:34.469Z,23.00
2023-03-23T19:07:01.980Z,15.68
2023-03-23T19:09:30.441Z,10.07
2023-03-23T19:11:57.276Z,12.07
2023-03-23T19:14:24.131Z,12.10
2023-03-23T19:16:52.375Z,12.50
2023-03-23T19:19:19.921Z,13.43
2023-03-23T19:21:47.285Z,8.27
2023-03-23T19:24:14.317Z,6.68
2023-03-23T19:26:43.467Z,8.15
2023-03-23T19:31:45.740Z,9.80
2023-03-23T19:34:14.172Z,10.97
2023-03-23T19:36:41.108Z,12.13
2023-03-23T19:39:08.858Z,8.32
2023-03-23T19:41:36.333Z,11.25
2023-03-23T19:44:04.128Z,7.50
2023-03-23T19:46:32.089Z,10.57
2023-03-23T19:48:59.430Z,9.02
2023-03-23T19:51:27.592Z,10.40
2023-03-23T19:53:57.146Z,6.53
2023-03-23T19:56:24.873Z,7.85
2023-03-23T19:58:52.352Z,11.93
2023-03-23T20:01:19.455Z,13.40
2023-03-23T20:03:46.588Z,9.32
2023-03-23T20:06:15.200Z,9.70
2023-03-23T20:08:44.725Z,11.07
2023-03-23T20:11:14.418Z,10.35
2023-03-23T20:13:41.614Z,11.52
2023-03-23T20:16:09.272Z,9.80
2023-03-23T20:18:37.921Z,13.00
2023-03-23T20:21:07.422Z,15.80
2023-03-23T20:23:38.466Z,12.18
2023-03-23T20:28:33.979Z,10.85
2023-03-23T20:31:21.126Z,13.52
2023-03-23T20:34:02.502Z,11.38
2023-03-23T20:36:57.799Z,15.57
2023-03-23T20:39:26.584Z,13.07
2023-03-23T20:41:54.717Z,11.52
2023-03-23T20:44:25.337Z,14.65
2023-03-23T20:46:53.167Z,17.08
2023-03-23T20:49:20.905Z,10.10
2023-03-23T20:51:48.556Z,10.32
2023-03-23T20:54:16.258Z,10.43
2023-03-23T20:56:48.283Z,11.63
2023-03-23T20:59:15.783Z,9.93
2023-03-23T21:01:42.845Z,10.85
2023-03-23T21:04:15.199Z,11.98
2023-03-23T21:06:43.787Z,13.45
2023-03-23T21:09:10.481Z,14.00
2023-03-23T21:11:37.361Z,10.40
2023-03-23T21:14:05.215Z,14.13
2023-03-23T21:16:32.063Z,10.70
2023-03-23T21:18:59.020Z,10.80
2023-03-23T21:21:27.410Z,11.55
2023-03-23T21:23:55.641Z,15.05
2023-03-23T21:26:25.101Z,14.02
2023-03-23T21:28:54.258Z,9.50
2023-03-23T21:31:23.474Z,9.75
2023-03-23T21:33:50.499Z,11.15
2023-03-23T21:36:17.291Z,11.30
2023-03-23T21:38:44.803Z,10.98
2023-03-23T21:41:14.381Z,10.70
2023-03-23T21:43:44.465Z,11.70
2023-03-23T21:46:14.118Z,10.47
2023-03-23T21:48:41.588Z,11.00
2023-03-23T21:51:10.083Z,16.58
2023-03-23T21:53:37.189Z,11.77
2023-03-23T21:56:09.685Z,12.80
2023-03-23T21:58:37.856Z,12.80
2023-03-23T22:01:05.449Z,12.65
2023-03-23T22:03:33.260Z,17.60
2023-03-23T22:06:09.575Z,39.13
2023-03-23T22:08:37.576Z,31.98
2023-03-23T22:11:13.395Z,36.55
2023-03-23T22:13:41.523Z,26.90
2023-03-23T22:16:14.835Z,29.95
2023-03-23T22:18:43.414Z,23.70
2023-03-23T22:21:11.218Z,23.00
2023-03-23T22:23:39.145Z,19.20
2023-03-23T22:26:07.632Z,20.10
2023-03-23T22:28:37.151Z,16.85
2023-03-23T22:31:13.637Z,26.83
2023-03-23T22:33:40.543Z,26.08
2023-03-23T22:36:07.818Z,27.15
2023-03-23T22:38:42.189Z,33.75
2023-03-23T22:41:11.051Z,34.70
2023-03-23T22:43:38.068Z,21.45
2023-03-23T22:46:05.778Z,23.50
2023-03-23T22:48:32.739Z,11.02
2023-03-23T22:50:59.714Z,13.77
2023-03-23T22:53:26.862Z,15.80
2023-03-23T22:55:55.761Z,10.60
2023-03-23T22:58:23.882Z,13.10
2023-03-23T23:00:57.003Z,14.52
2023-03-23T23:03:23.903Z,13.00
2023-03-23T23:05:52.010Z,16.77
2023-03-23T23:08:19.329Z,14.52
2023-03-23T23:10:48.920Z,15.30
2023-03-23T23:13:15.833Z,15.35
2023-03-23T23:15:45.734Z,20.10
2023-03-23T23:18:12.612Z,14.02
2023-03-23T23:20:41.090Z,17.75
2023-03-23T23:23:08.629Z,13.15
2023-03-23T23:25:35.794Z,14.88
2023-03-23T23:28:04.065Z,19.23
2023-03-23T23:30:31.553Z,23.58
2023-03-23T23:32:58.937Z,21.27
2023-03-23T23:35:26.473Z,29.85
2023-03-23T23:37:53.727Z,23.33
2023-03-23T23:40:20.763Z,16.80
2023-03-23T23:42:49.891Z,15.18
2023-03-23T23:45:17.548Z,14.15
2023-03-23T23:47:45.652Z,19.40
2023-03-23T23:50:14.115Z,16.27
2023-03-23T23:52:42.633Z,17.00
2023-03-23T23:55:11.065Z,15.05
2023-03-23T23:57:38.004Z,16.13
